Time;durP1;ratioP1;P1;durP2;ratioP2;P2;SDS_P1;SDS_P2;PMS_P1;PMS_P2;Temp;Humidity;BMP_temperature;BMP_pressure;BME280_temperature;BME280_humidity;BME280_pressure;Samples;Min_cycle;Max_cycle;Signal;HPM_P1;HPM_P2
2021/07/31 00:01:08;;;;;;;9.23;7.60;;;25.40;99.90;;;;;;6159560;23;20432;-68
2021/07/31 00:03:36;;;;;;;11.60;8.90;;;25.30;99.90;;;;;;6186974;23;20920;-67
2021/07/31 00:06:03;;;;;;;11.33;8.67;;;25.30;99.90;;;;;;6160376;23;20392;-67
2021/07/31 00:08:29;;;;;;;8.47;7.57;;;25.30;99.90;;;;;;6186793;23;20482;-75
2021/07/31 00:10:54;;;;;;;10.47;7.80;;;25.30;99.90;;;;;;6186455;23;20444;-67
2021/07/31 00:13:20;;;;;;;10.77;8.93;;;25.20;99.90;;;;;;6186763;23;20394;-75
2021/07/31 00:15:46;;;;;;;8.10;7.27;;;25.20;99.90;;;;;;6186715;23;20240;-67
2021/07/31 00:18:11;;;;;;;11.50;8.50;;;25.20;99.90;;;;;;6186556;23;20154;-67
2021/07/31 00:20:38;;;;;;;10.23;8.10;;;25.10;99.90;;;;;;6186656;23;20177;-67
2021/07/31 00:23:04;;;;;;;13.80;8.40;;;25.10;99.90;;;;;;6186548;23;20499;-75
2021/07/31 00:25:30;;;;;;;11.77;8.80;;;25.10;99.90;;;;;;6160408;23;20419;-67
2021/07/31 00:27:56;;;;;;;10.87;8.30;;;25.10;99.90;;;;;;6186601;23;20384;-73
2021/07/31 00:30:24;;;;;;;13.00;8.10;;;25.00;99.90;;;;;;6187002;23;20820;-67
2021/07/31 00:32:50;;;;;;;11.70;7.80;;;25.00;99.90;;;;;;6186526;23;20157;-67
2021/07/31 00:35:16;;;;;;;10.33;9.33;;;25.00;99.90;;;;;;6187030;23;20940;-75
2021/07/31 00:37:41;;;;;;;12.37;8.03;;;25.00;99.90;;;;;;6186466;23;20458;-67
2021/07/31 00:40:08;;;;;;;10.00;7.80;;;25.00;99.90;;;;;;6186296;23;20174;-67
2021/07/31 00:42:36;;;;;;;10.27;8.80;;;24.90;99.90;;;;;;6186377;23;20228;-74
2021/07/31 00:45:02;;;;;;;10.20;9.20;;;24.90;99.90;;;;;;6159943;23;20547;-67
2021/07/31 00:47:27;;;;;;;10.30;9.20;;;24.90;99.90;;;;;;6186387;23;20399;-68
2021/07/31 00:49:53;;;;;;;10.17;9.27;;;24.80;99.90;;;;;;6159637;23;20197;-75
2021/07/31 00:52:19;;;;;;;12.10;8.73;;;24.80;99.90;;;;;;6186423;23;20484;-74
2021/07/31 00:54:44;;;;;;;10.93;9.03;;;24.80;99.90;;;;;;6186693;23;20611;-67
2021/07/31 00:57:11;;;;;;;13.83;9.33;;;24.80;99.90;;;;;;6186312;23;20271;-73
2021/07/31 00:59:36;;;;;;;11.30;8.27;;;24.80;99.90;;;;;;6185941;23;20202;-75
2021/07/31 01:02:02;;;;;;;10.03;8.93;;;24.80;99.90;;;;;;6186342;23;20409;-74
2021/07/31 01:04:28;;;;;;;12.60;8.67;;;24.80;99.90;;;;;;6159945;23;20517;-75
2021/07/31 01:06:53;;;;;;;10.40;8.70;;;24.80;99.90;;;;;;6186250;23;20157;-73
2021/07/31 01:09:19;;;;;;;11.03;8.60;;;24.80;99.90;;;;;;6186634;23;20173;-74
2021/07/31 01:11:45;;;;;;;13.90;9.30;;;24.70;99.90;;;;;;6186063;23;20276;-67
2021/07/31 01:14:11;;;;;;;14.97;8.57;;;24.70;99.90;;;;;;6186331;23;20181;-75
2021/07/31 01:16:37;;;;;;;11.20;9.00;;;24.70;99.90;;;;;;6186304;23;20537;-75
2021/07/31 01:19:02;;;;;;;10.00;8.93;;;24.70;99.90;;;;;;6186339;23;20498;-67
2021/07/31 01:21:41;;;;;;;10.03;9.00;;;24.70;99.90;;;;;;6186273;23;20211;-67
2021/07/31 01:24:08;;;;;;;13.20;10.50;;;24.60;99.90;;;;;;6186313;23;20180;-67
2021/07/31 01:26:46;;;;;;;12.63;8.70;;;24.60;99.90;;;;;;6186261;23;20371;-74
2021/07/31 01:29:14;;;;;;;10.00;9.00;;;24.50;99.90;;;;;;6186468;23;20759;-74
2021/07/31 01:31:41;;;;;;;11.80;8.57;;;24.50;99.90;;;;;;6186035;23;20422;-67
2021/07/31 01:34:07;;;;;;;11.87;10.17;;;24.50;99.90;;;;;;6186223;23;20405;-67
2021/07/31 01:36:33;;;;;;;11.97;10.03;;;24.40;99.90;;;;;;6186195;23;20413;-74
2021/07/31 01:38:59;;;;;;;11.50;9.53;;;24.40;99.90;;;;;;6185972;23;20454;-68
2021/07/31 01:41:25;;;;;;;10.73;9.63;;;24.40;99.90;;;;;;6186229;23;20165;-68
2021/07/31 01:43:51;;;;;;;12.63;10.50;;;24.40;99.90;;;;;;6186257;23;20473;-67
2021/07/31 01:46:18;;;;;;;11.53;10.43;;;24.40;99.90;;;;;;6186101;23;20381;-67
2021/07/31 01:48:44;;;;;;;12.00;9.87;;;24.30;99.90;;;;;;6186264;23;20413;-67
2021/07/31 01:51:09;;;;;;;12.37;10.27;;;24.30;99.90;;;;;;6185928;23;20759;-67
2021/07/31 01:53:35;;;;;;;15.37;10.07;;;24.30;99.90;;;;;;6186078;23;20238;-67
2021/07/31 01:56:00;;;;;;;10.20;8.90;;;24.30;99.90;;;;;;6159696;23;20163;-68
2021/07/31 01:58:26;;;;;;;11.70;10.07;;;24.30;99.90;;;;;;6187635;23;20203;-67
2021/07/31 02:00:56;;;;;;;10.00;8.77;;;24.30;99.90;;;;;;6187976;23;20286;-67
2021/07/31 02:03:22;;;;;;;10.43;9.43;;;24.30;99.90;;;;;;6188024;23;20160;-75
2021/07/31 02:05:47;;;;;;;10.53;9.43;;;24.30;99.90;;;;;;6187897;23;20517;-74
2021/07/31 02:08:13;;;;;;;11.53;9.90;;;24.30;99.90;;;;;;6187876;23;20152;-74
2021/07/31 02:10:39;;;;;;;13.83;9.90;;;24.30;99.90;;;;;;6187710;23;20192;-75
2021/07/31 02:13:04;;;;;;;10.77;9.43;;;24.20;99.90;;;;;;6187822;23;20204;-74
2021/07/31 02:15:30;;;;;;;9.87;8.97;;;24.20;99.90;;;;;;6188314;23;20491;-67
2021/07/31 02:17:56;;;;;;;10.67;9.67;;;24.20;99.90;;;;;;6187764;23;20228;-69
2021/07/31 02:20:23;;;;;;;13.10;9.00;;;24.20;99.90;;;;;;6188232;23;20424;-74
2021/07/31 02:22:49;;;;;;;12.83;10.23;;;24.20;99.90;;;;;;6187769;23;20750;-73
2021/07/31 02:25:15;;;;;;;13.80;9.70;;;24.10;99.90;;;;;;6188102;23;20440;-67
2021/07/31 02:27:40;;;;;;;11.20;10.00;;;24.10;99.90;;;;;;6161276;23;20440;-73
2021/07/31 02:30:07;;;;;;;11.63;9.77;;;24.10;99.90;;;;;;6187921;23;20206;-75
2021/07/31 02:32:32;;;;;;;15.43;11.20;;;24.00;99.90;;;;;;6187799;23;20188;-67
2021/07/31 02:34:58;;;;;;;15.17;12.07;;;24.00;99.90;;;;;;6187905;23;20720;-68
2021/07/31 02:37:23;;;;;;;11.73;10.03;;;23.90;99.90;;;;;;6187722;23;20152;-72
2021/07/31 02:39:49;;;;;;;15.03;10.40;;;24.00;99.90;;;;;;6188086;23;20180;-67
2021/07/31 02:42:16;;;;;;;11.10;10.00;;;23.90;99.90;;;;;;6187520;23;20239;-73
2021/07/31 02:44:41;;;;;;;17.07;11.13;;;23.90;99.90;;;;;;6187838;23;20179;-74
2021/07/31 02:47:07;;;;;;;10.20;9.10;;;23.80;99.90;;;;;;6187274;23;20386;-74
2021/07/31 02:49:33;;;;;;;12.33;11.03;;;23.80;99.90;;;;;;6187780;23;20178;-67
2021/07/31 02:51:58;;;;;;;12.90;10.50;;;23.70;99.90;;;;;;6187442;23;20162;-75
2021/07/31 02:54:24;;;;;;;16.17;10.13;;;23.70;99.90;;;;;;6187689;23;20175;-76
2021/07/31 02:56:49;;;;;;;14.03;10.80;;;23.70;99.90;;;;;;6187532;23;20238;-67
2021/07/31 02:59:15;;;;;;;12.90;10.83;;;23.60;99.90;;;;;;6186904;23;20245;-67
2021/07/31 03:01:41;;;;;;;12.70;10.17;;;23.60;99.90;;;;;;6187439;23;20160;-74
2021/07/31 03:04:06;;;;;;;12.60;11.30;;;23.60;99.90;;;;;;6187347;23;20190;-75
2021/07/31 03:06:32;;;;;;;16.20;11.07;;;23.60;99.90;;;;;;6187387;23;20151;-67
2021/07/31 03:08:57;;;;;;;14.10;10.50;;;23.50;99.90;;;;;;6186653;23;20170;-73
2021/07/31 03:11:23;;;;;;;10.23;9.20;;;23.50;99.90;;;;;;6160721;23;20191;-67
2021/07/31 03:13:48;;;;;;;12.37;10.17;;;23.50;99.90;;;;;;6160987;23;20167;-75
2021/07/31 03:16:14;;;;;;;13.70;10.30;;;23.60;99.90;;;;;;6187225;23;20151;-67
2021/07/31 03:18:41;;;;;;;12.20;9.83;;;23.50;99.90;;;;;;6187239;23;20157;-67
2021/07/31 03:21:07;;;;;;;13.27;11.53;;;23.50;99.90;;;;;;6160944;23;20623;-67
2021/07/31 03:23:32;;;;;;;17.70;11.43;;;23.50;99.90;;;;;;6187239;23;20385;-68
2021/07/31 03:26:00;;;;;;;15.50;12.77;;;23.40;99.90;;;;;;6187089;23;20242;-75
2021/07/31 03:28:26;;;;;;;15.67;12.90;;;23.30;99.90;;;;;;6187065;23;20156;-67
2021/07/31 03:30:52;;;;;;;14.67;12.67;;;23.30;99.90;;;;;;6186906;23;20733;-75
2021/07/31 03:33:18;;;;;;;14.43;12.93;;;23.30;99.90;;;;;;6187059;23;20369;-75
2021/07/31 03:35:44;;;;;;;15.13;12.57;;;23.30;99.90;;;;;;6187212;23;20170;-75
2021/07/31 03:38:10;;;;;;;14.07;12.67;;;23.40;99.90;;;;;;6186954;23;20209;-74
2021/07/31 03:40:37;;;;;;;15.13;13.70;;;23.40;99.90;;;;;;6186970;23;20413;-67
2021/07/31 03:43:03;;;;;;;16.03;14.03;;;23.50;99.90;;;;;;6187047;23;20463;-75
2021/07/31 03:45:29;;;;;;;15.43;13.77;;;23.50;99.90;;;;;;6160811;23;20444;-67
2021/07/31 03:47:55;;;;;;;14.67;12.93;;;23.60;99.90;;;;;;6186985;23;20373;-67
2021/07/31 03:50:20;;;;;;;15.10;13.60;;;23.60;99.90;;;;;;6187479;23;20236;-75
2021/07/31 03:52:46;;;;;;;16.17;13.40;;;23.70;99.90;;;;;;6187035;23;20150;-75
2021/07/31 03:55:13;;;;;;;14.37;12.67;;;23.70;99.90;;;;;;6187365;23;20225;-67
2021/07/31 03:57:38;;;;;;;13.30;11.90;;;23.80;99.90;;;;;;6186922;23;20161;-74
2021/07/31 04:00:05;;;;;;;15.63;12.67;;;23.80;99.90;;;;;;6186582;23;20459;-75
2021/07/31 04:02:32;;;;;;;15.97;14.37;;;23.90;99.90;;;;;;6186697;23;20155;-75
2021/07/31 04:04:57;;;;;;;13.93;12.20;;;23.90;99.90;;;;;;6187244;23;20405;-71
2021/07/31 04:07:23;;;;;;;17.00;13.83;;;23.90;99.90;;;;;;6186870;23;20836;-72
2021/07/31 04:09:49;;;;;;;14.60;13.17;;;23.90;99.90;;;;;;6160511;23;20191;-67
2021/07/31 04:12:14;;;;;;;14.60;13.10;;;24.00;99.90;;;;;;6186688;23;20151;-67
2021/07/31 04:14:40;;;;;;;14.47;12.90;;;24.00;99.90;;;;;;6186985;23;20175;-75
2021/07/31 04:17:05;;;;;;;14.33;12.80;;;24.00;99.90;;;;;;6186680;23;20159;-68
2021/07/31 04:19:31;;;;;;;14.77;13.20;;;24.10;99.90;;;;;;6186255;23;21101;-68
2021/07/31 04:21:57;;;;;;;14.20;12.80;;;24.10;99.90;;;;;;6186354;23;20209;-74
2021/07/31 04:24:23;;;;;;;15.93;14.23;;;24.10;99.90;;;;;;6160262;23;20204;-68
2021/07/31 04:26:49;;;;;;;15.37;13.57;;;24.10;99.90;;;;;;6160191;23;20160;-75
2021/07/31 04:29:15;;;;;;;16.13;14.53;;;24.10;99.90;;;;;;6184954;23;20521;-67
2021/07/31 04:31:41;;;;;;;16.40;14.80;;;24.10;99.90;;;;;;6186539;23;20196;-74
2021/07/31 04:34:06;;;;;;;15.50;13.87;;;24.10;99.90;;;;;;6186649;23;20733;-67
2021/07/31 04:36:33;;;;;;;14.80;13.30;;;24.10;99.90;;;;;;6186601;23;20187;-68
2021/07/31 04:38:59;;;;;;;15.70;14.20;;;24.10;99.90;;;;;;6186538;23;20179;-66
2021/07/31 04:41:24;;;;;;;14.90;13.07;;;24.10;99.90;;;;;;6186494;23;20365;-75
2021/07/31 04:43:50;;;;;;;16.80;14.70;;;24.10;99.90;;;;;;6186589;23;20400;-74
2021/07/31 04:46:16;;;;;;;14.37;12.97;;;24.10;99.90;;;;;;6160021;23;20168;-68
2021/07/31 04:48:41;;;;;;;15.43;13.80;;;24.10;99.90;;;;;;6186546;23;20203;-67
2021/07/31 04:51:09;;;;;;;17.30;13.50;;;24.10;99.90;;;;;;6186267;23;20646;-67
2021/07/31 04:53:34;;;;;;;17.93;15.30;;;24.10;99.90;;;;;;6186407;23;20233;-67
2021/07/31 04:56:00;;;;;;;14.20;12.80;;;24.10;99.90;;;;;;6186336;23;20371;-74
2021/07/31 04:58:26;;;;;;;23.97;13.93;;;24.20;99.90;;;;;;6185888;23;20373;-75
2021/07/31 05:00:54;;;;;;;14.10;12.60;;;24.20;99.90;;;;;;6186266;23;20626;-76
2021/07/31 05:03:20;;;;;;;13.63;12.23;;;24.20;99.90;;;;;;6159931;23;20242;-67
2021/07/31 05:05:46;;;;;;;16.50;13.67;;;24.30;99.90;;;;;;6186281;23;20430;-67
2021/07/31 05:08:13;;;;;;;14.17;12.67;;;24.30;99.90;;;;;;6186175;23;20152;-72
2021/07/31 05:10:42;;;;;;;14.87;13.33;;;24.40;99.90;;;;;;6186197;23;20234;-74
2021/07/31 05:13:08;;;;;;;13.83;12.10;;;24.40;99.90;;;;;;6159820;23;20383;-68
2021/07/31 05:15:38;;;;;;;14.80;13.10;;;24.50;99.90;;;;;;6186148;23;20922;-67
2021/07/31 05:18:04;;;;;;;13.57;12.13;;;24.60;99.90;;;;;;6186485;23;20369;-67
2021/07/31 05:20:30;;;;;;;14.17;12.77;;;24.60;99.90;;;;;;6186146;23;20412;-67
2021/07/31 05:22:56;;;;;;;13.97;11.70;;;24.70;99.90;;;;;;6185880;23;20462;-70
2021/07/31 05:25:22;;;;;;;18.73;12.93;;;24.70;99.90;;;;;;6186798;23;20180;-75
2021/07/31 05:27:47;;;;;;;15.00;12.83;;;24.80;99.90;;;;;;6184683;23;20390;-71
2021/07/31 05:30:13;;;;;;;15.53;11.53;;;24.90;99.90;;;;;;6186496;23;20191;-67
2021/07/31 05:32:39;;;;;;;14.23;11.83;;;25.00;99.90;;;;;;6187497;23;20666;-74
2021/07/31 05:35:05;;;;;;;13.30;12.00;;;25.00;99.90;;;;;;6161894;23;20188;-68
2021/07/31 05:37:31;;;;;;;16.03;11.80;;;25.10;99.90;;;;;;6161828;23;20240;-67
2021/07/31 05:39:59;;;;;;;12.73;11.50;;;25.20;99.90;;;;;;6188548;23;20395;-75
2021/07/31 05:42:25;;;;;;;13.80;11.53;;;25.20;99.90;;;;;;6188135;23;20387;-67
2021/07/31 05:44:58;;;;;;;12.70;10.27;;;25.30;99.90;;;;;;6188549;23;20852;-74
2021/07/31 05:47:26;;;;;;;13.43;11.50;;;25.40;99.90;;;;;;6161814;23;20388;-74
2021/07/31 05:49:56;;;;;;;11.60;10.60;;;25.50;99.90;;;;;;6161969;23;20442;-74
2021/07/31 05:52:25;;;;;;;12.90;10.60;;;25.60;99.90;;;;;;6188394;23;20380;-67
2021/07/31 05:54:55;;;;;;;12.70;11.40;;;25.60;99.90;;;;;;6187924;23;20409;-67
2021/07/31 05:57:21;;;;;;;12.80;11.50;;;25.70;99.90;;;;;;6188035;23;20380;-66
2021/07/31 05:59:46;;;;;;;13.07;10.90;;;25.80;99.90;;;;;;6187692;23;21012;-67
2021/07/31 06:02:12;;;;;;;11.70;10.57;;;25.90;99.90;;;;;;6161526;23;20384;-67
2021/07/31 06:04:38;;;;;;;12.37;10.80;;;26.00;99.90;;;;;;6188235;23;20182;-75
2021/07/31 06:07:06;;;;;;;11.77;9.70;;;26.10;99.90;;;;;;6187916;23;20151;-68
2021/07/31 06:09:36;;;;;;;11.77;10.37;;;26.20;99.90;;;;;;6161570;23;20179;-75
2021/07/31 06:12:03;;;;;;;11.30;10.10;;;26.20;99.90;;;;;;6161450;23;20727;-75
2021/07/31 06:14:29;;;;;;;11.03;9.93;;;26.30;99.90;;;;;;6187997;23;20436;-75
2021/07/31 06:16:54;;;;;;;10.80;9.70;;;26.40;99.90;;;;;;6187841;23;20379;-75
2021/07/31 06:19:21;;;;;;;10.70;8.83;;;26.50;99.90;;;;;;6161251;23;20408;-75
2021/07/31 06:21:46;;;;;;;11.13;9.90;;;26.60;99.90;;;;;;6187889;23;20616;-68
2021/07/31 06:24:12;;;;;;;11.07;9.90;;;26.70;99.90;;;;;;6187547;23;20405;-67
2021/07/31 06:26:37;;;;;;;11.53;10.10;;;26.70;99.90;;;;;;6187786;23;20604;-67
2021/07/31 06:29:03;;;;;;;11.70;10.60;;;26.80;99.90;;;;;;6161204;23;20178;-68
2021/07/31 06:31:30;;;;;;;12.53;11.30;;;26.80;99.90;;;;;;6187640;23;20191;-75
2021/07/31 06:33:58;;;;;;;11.90;10.70;;;26.90;99.90;;;;;;6187705;23;20415;-75
2021/07/31 06:36:23;;;;;;;15.07;11.17;;;27.00;99.90;;;;;;6161303;23;20399;-67
2021/07/31 06:38:49;;;;;;;11.83;10.33;;;27.00;99.90;;;;;;6187566;23;20392;-74
2021/07/31 06:41:15;;;;;;;10.87;9.77;;;27.10;99.90;;;;;;6186014;23;20502;-68
2021/07/31 06:43:40;;;;;;;11.00;9.53;;;27.10;99.90;;;;;;6187110;23;20165;-67
2021/07/31 06:46:14;;;;;;;9.80;8.80;;;27.10;99.90;;;;;;6187608;23;20540;-67
2021/07/31 06:48:41;;;;;;;9.63;8.70;;;27.20;99.90;;;;;;6187658;23;20623;-75
2021/07/31 06:51:07;;;;;;;9.80;8.93;;;27.30;99.90;;;;;;6187374;23;20424;-75
2021/07/31 06:53:32;;;;;;;10.80;9.70;;;27.30;99.90;;;;;;6187394;23;20913;-67
2021/07/31 06:56:02;;;;;;;9.97;9.07;;;27.30;99.90;;;;;;6187416;23;20710;-75
2021/07/31 06:58:28;;;;;;;12.03;8.70;;;27.30;99.90;;;;;;6160741;23;20519;-76
2021/07/31 07:00:53;;;;;;;9.97;8.97;;;27.40;99.90;;;;;;6187235;23;20396;-68
2021/07/31 07:03:20;;;;;;;12.40;9.77;;;27.40;99.90;;;;;;6186850;23;20447;-69
2021/07/31 07:05:45;;;;;;;9.07;8.17;;;27.40;99.90;;;;;;6187055;23;20587;-69
2021/07/31 07:08:11;;;;;;;9.03;8.23;;;27.40;99.90;;;;;;6187258;23;20374;-75
2021/07/31 07:10:37;;;;;;;10.97;9.87;;;27.50;99.90;;;;;;6159647;23;20727;-75
2021/07/31 07:13:03;;;;;;;12.03;9.07;;;27.60;99.90;;;;;;6159505;23;20160;-69
2021/07/31 07:15:28;;;;;;;10.27;9.27;;;27.70;99.90;;;;;;6187127;23;20277;-69
2021/07/31 07:17:58;;;;;;;8.83;8.03;;;27.70;99.90;;;;;;6160611;23;20769;-73
2021/07/31 07:20:25;;;;;;;10.30;9.30;;;27.80;99.90;;;;;;6185526;23;20179;-69
2021/07/31 07:22:51;;;;;;;10.50;9.20;;;27.90;99.90;;;;;;6184580;23;20685;-68
2021/07/31 07:25:17;;;;;;;12.10;9.83;;;28.00;99.90;;;;;;6184931;23;20404;-69
2021/07/31 07:27:43;;;;;;;10.33;9.43;;;28.10;99.90;;;;;;6158209;23;20796;-69
2021/07/31 07:30:09;;;;;;;10.10;9.00;;;28.10;99.90;;;;;;6184873;23;20441;-75
2021/07/31 07:32:35;;;;;;;12.50;10.40;;;28.20;99.90;;;;;;6158010;23;20206;-76
2021/07/31 07:35:02;;;;;;;9.10;8.27;;;28.30;99.90;;;;;;6185540;23;20883;-75
2021/07/31 07:37:28;;;;;;;10.43;9.20;;;28.30;99.90;;;;;;6187024;23;20436;-69
2021/07/31 07:39:54;;;;;;;10.93;9.83;;;28.40;99.90;;;;;;6187327;23;20746;-75
2021/07/31 07:42:19;;;;;;;10.70;9.70;;;28.50;99.90;;;;;;6186893;23;20467;-75
2021/07/31 07:44:45;;;;;;;10.23;9.23;;;28.50;99.90;;;;;;6187151;23;20315;-69
2021/07/31 07:47:11;;;;;;;10.47;9.33;;;28.60;99.90;;;;;;6186909;23;20160;-76
2021/07/31 07:49:36;;;;;;;10.33;9.13;;;28.60;99.90;;;;;;6187151;23;20171;-68
2021/07/31 07:52:03;;;;;;;10.33;9.10;;;28.70;99.90;;;;;;6186824;23;20202;-72
2021/07/31 07:54:29;;;;;;;10.57;9.17;;;28.70;99.90;;;;;;6186710;23;20501;-69
2021/07/31 07:56:55;;;;;;;9.53;8.63;;;28.80;99.90;;;;;;6160129;23;20435;-74
2021/07/31 07:59:21;;;;;;;10.90;9.80;;;28.80;99.90;;;;;;6186181;23;20769;-69
2021/07/31 08:01:46;;;;;;;12.40;9.37;;;28.90;99.90;;;;;;6160020;23;20401;-69
2021/07/31 08:04:12;;;;;;;10.23;9.23;;;28.90;99.90;;;;;;6186353;23;20574;-75
2021/07/31 08:06:38;;;;;;;10.73;9.73;;;29.00;99.90;;;;;;6186812;23;20163;-75
2021/07/31 08:09:04;;;;;;;10.53;9.50;;;29.10;99.90;;;;;;6185606;23;20174;-73
2021/07/31 08:11:30;;;;;;;11.03;9.60;;;29.10;99.90;;;;;;6186260;23;20673;-74
2021/07/31 08:13:56;;;;;;;11.60;10.37;;;29.10;99.90;;;;;;6186611;23;20899;-75
2021/07/31 08:16:21;;;;;;;10.83;9.40;;;29.20;99.90;;;;;;6186288;23;20392;-70
2021/07/31 08:18:47;;;;;;;10.00;9.10;;;29.30;99.90;;;;;;6186163;23;20470;-75
2021/07/31 08:21:12;;;;;;;10.57;9.47;;;29.30;99.90;;;;;;6159313;23;20160;-74
2021/07/31 08:23:38;;;;;;;10.70;9.60;;;29.40;99.90;;;;;;6185807;23;20513;-76
2021/07/31 08:26:08;;;;;;;10.00;9.10;;;29.40;99.90;;;;;;6159961;23;20240;-69
2021/07/31 08:28:34;;;;;;;10.80;9.60;;;29.50;99.90;;;;;;6157142;23;20490;-74
2021/07/31 08:30:59;;;;;;;10.03;9.03;;;29.50;99.90;;;;;;6184746;23;20461;-68
2021/07/31 08:33:25;;;;;;;9.80;8.90;;;29.60;99.90;;;;;;6185809;23;20157;-68
2021/07/31 08:35:50;;;;;;;11.13;9.80;;;29.60;99.90;;;;;;6159761;23;20630;-76
2021/07/31 08:38:16;;;;;;;10.70;9.60;;;29.70;99.90;;;;;;6186157;23;20156;-73
2021/07/31 08:40:43;;;;;;;11.80;9.40;;;29.70;99.90;;;;;;6159516;23;20213;-73
2021/07/31 08:43:09;;;;;;;10.63;9.60;;;29.70;99.90;;;;;;6185747;23;20152;-72
2021/07/31 08:45:35;;;;;;;10.33;9.30;;;29.80;99.90;;;;;;6185594;23;20395;-68
2021/07/31 08:48:01;;;;;;;10.13;9.23;;;29.80;99.90;;;;;;6158481;23;20486;-74
2021/07/31 08:50:27;;;;;;;10.47;9.37;;;29.80;99.90;;;;;;6186187;23;20210;-67
2021/07/31 08:52:57;;;;;;;10.93;9.57;;;29.90;99.90;;;;;;6158999;23;20391;-74
2021/07/31 08:55:23;;;;;;;10.33;9.40;;;29.90;99.90;;;;;;6184901;23;20408;-75
2021/07/31 08:57:48;;;;;;;11.67;9.13;;;30.00;99.90;;;;;;6159387;23;20872;-68
2021/07/31 09:00:15;;;;;;;9.97;9.07;;;30.10;99.90;;;;;;6185387;23;20283;-75
2021/07/31 09:02:48;;;;;;;12.53;9.47;;;30.20;99.90;;;;;;6159110;23;20426;-68
2021/07/31 09:05:30;;;;;;;9.97;8.97;;;30.30;99.90;;;;;;6185532;23;20413;-68
2021/07/31 09:08:01;;;;;;;11.57;9.73;;;30.30;99.90;;;;;;6159042;23;20754;-72
2021/07/31 09:10:28;;;;;;;10.20;9.23;;;30.40;99.90;;;;;;6186184;23;20442;-68
2021/07/31 09:12:59;;;;;;;10.10;9.10;;;30.50;99.90;;;;;;6185494;23;20382;-72
2021/07/31 09:15:45;;;;;;;9.70;8.90;;;30.50;99.90;;;;;;6157507;23;20406;-73
2021/07/31 09:18:31;;;;;;;10.03;8.90;;;30.60;99.90;;;;;;6159231;23;20476;-72
2021/07/31 09:21:07;;;;;;;10.43;9.53;;;30.70;99.90;;;;;;6185480;23;20699;-66
2021/07/31 09:23:46;;;;;;;9.40;8.50;;;30.70;99.90;;;;;;6159050;23;20438;-65
2021/07/31 09:26:17;;;;;;;10.03;9.13;;;30.80;99.90;;;;;;6185717;23;20455;-66
2021/07/31 09:28:45;;;;;;;11.10;10.00;;;30.90;99.90;;;;;;6159014;23;20393;-68
2021/07/31 09:31:20;;;;;;;9.70;8.70;;;30.90;99.90;;;;;;6158393;23;21015;-71
2021/07/31 09:33:48;;;;;;;9.60;8.60;;;31.00;99.90;;;;;;6184771;23;20411;-67
2021/07/31 09:36:14;;;;;;;9.60;8.70;;;31.10;99.90;;;;;;6158197;23;20380;-67
2021/07/31 09:38:44;;;;;;;9.37;8.47;;;31.20;99.90;;;;;;6183112;23;20397;-72
2021/07/31 09:41:22;;;;;;;9.60;8.73;;;31.30;99.90;;;;;;6156550;23;20745;-66
2021/07/31 09:44:09;;;;;;;8.93;8.13;;;31.30;99.90;;;;;;6183879;23;20392;-71
2021/07/31 09:46:37;;;;;;;9.53;8.70;;;31.30;99.90;;;;;;6184697;23;20375;-73
2021/07/31 09:49:05;;;;;;;9.47;8.57;;;31.30;99.90;;;;;;6158401;23;20507;-71
2021/07/31 09:51:36;;;;;;;10.23;9.40;;;31.30;99.90;;;;;;6184609;23;20435;-67
2021/07/31 09:54:03;;;;;;;9.53;8.63;;;31.40;99.90;;;;;;6183642;23;20466;-73
2021/07/31 09:56:39;;;;;;;9.53;8.53;;;31.40;99.90;;;;;;6153906;23;20833;-73
2021/07/31 09:59:06;;;;;;;9.70;8.80;;;31.40;99.90;;;;;;6181494;23;20432;-71
2021/07/31 10:01:35;;;;;;;9.47;8.60;;;31.40;99.90;;;;;;6183349;23;20410;-67
2021/07/31 10:04:03;;;;;;;8.90;8.00;;;31.40;99.90;;;;;;6183203;23;20729;-72
2021/07/31 10:06:31;;;;;;;8.97;8.07;;;31.40;99.90;;;;;;6182770;23;20377;-71
2021/07/31 10:08:57;;;;;;;8.97;7.50;;;31.50;99.90;;;;;;6156486;23;20612;-67
2021/07/31 10:11:23;;;;;;;9.33;8.40;;;31.50;99.90;;;;;;6182468;23;20438;-71
2021/07/31 10:13:50;;;;;;;9.10;8.20;;;31.50;99.90;;;;;;6155202;23;21088;-72
2021/07/31 10:16:16;;;;;;;8.83;8.13;;;31.60;99.90;;;;;;6181762;23;20162;-72
2021/07/31 10:18:55;;;;;;;8.90;8.03;;;31.70;99.90;;;;;;6183111;23;20478;-71
2021/07/31 10:21:22;;;;;;;9.40;8.40;;;31.60;99.90;;;;;;6157523;23;20173;-72
2021/07/31 10:24:07;;;;;;;9.30;8.47;;;31.70;99.90;;;;;;6157615;23;20408;-74
2021/07/31 10:26:34;;;;;;;10.60;8.40;;;31.80;99.90;;;;;;6184908;23;20371;-70
2021/07/31 10:29:25;;;;;;;9.67;8.13;;;31.80;99.90;;;;;;6186365;23;20555;-69
2021/07/31 10:31:52;;;;;;;9.00;8.10;;;31.90;99.90;;;;;;6186671;23;20408;-69
2021/07/31 10:34:49;;;;;;;7.30;6.60;;;31.90;99.90;;;;;;6187072;23;20403;-68
2021/07/31 10:37:36;;;;;;;8.73;7.83;;;32.00;99.90;;;;;;6186493;23;20385;-72
2021/07/31 10:40:03;;;;;;;8.23;7.43;;;32.00;99.80;;;;;;6159793;23;20500;-65
2021/07/31 10:42:47;;;;;;;7.57;6.97;;;32.10;99.90;;;;;;6186541;23;20690;-71
2021/07/31 10:45:16;;;;;;;8.20;7.40;;;32.10;99.70;;;;;;6160396;23;20744;-72
2021/07/31 10:47:43;;;;;;;8.23;7.40;;;32.10;99.90;;;;;;6160090;23;20414;-69
2021/07/31 10:50:40;;;;;;;7.57;6.87;;;32.20;99.70;;;;;;6159268;23;20432;-72
2021/07/31 10:53:12;;;;;;;7.70;7.00;;;32.20;98.80;;;;;;6161910;23;20392;-74
2021/07/31 10:55:38;;;;;;;7.20;6.60;;;32.20;98.50;;;;;;6159634;23;20777;-71
2021/07/31 10:58:08;;;;;;;6.50;5.90;;;32.10;98.50;;;;;;6185821;23;20446;-70
2021/07/31 11:00:41;;;;;;;8.03;7.10;;;32.10;98.60;;;;;;6186189;23;20229;-74
2021/07/31 11:03:18;;;;;;;6.83;6.17;;;32.10;98.40;;;;;;6186127;23;20404;-71
2021/07/31 11:05:55;;;;;;;6.73;6.07;;;32.20;98.60;;;;;;6159365;23;20416;-69
2021/07/31 11:08:21;;;;;;;7.27;6.57;;;32.30;98.10;;;;;;6157522;23;20384;-71
2021/07/31 11:10:48;;;;;;;5.60;5.13;;;32.40;98.00;;;;;;6183586;23;20424;-74
2021/07/31 11:13:17;;;;;;;6.13;5.53;;;32.50;98.40;;;;;;6183679;23;20881;-71
2021/07/31 11:16:02;;;;;;;6.10;5.50;;;32.50;97.80;;;;;;6183977;23;20524;-66
2021/07/31 11:18:38;;;;;;;4.90;4.50;;;32.60;96.70;;;;;;6183365;23;20384;-70
2021/07/31 11:21:28;;;;;;;5.20;4.63;;;32.60;94.80;;;;;;6183300;23;20376;-72
2021/07/31 11:24:14;;;;;;;5.70;5.20;;;32.60;94.80;;;;;;6185610;23;20396;-66
2021/07/31 11:26:54;;;;;;;4.87;4.37;;;32.60;95.80;;;;;;6185733;23;20475;-70
2021/07/31 11:29:22;;;;;;;4.57;4.20;;;32.70;95.80;;;;;;6185761;23;20925;-70
2021/07/31 11:32:11;;;;;;;5.20;4.70;;;32.70;95.40;;;;;;6159251;23;20436;-71
2021/07/31 11:34:37;;;;;;;5.50;5.00;;;32.70;94.90;;;;;;6186060;23;20400;-64
2021/07/31 11:37:03;;;;;;;4.73;4.33;;;32.80;95.10;;;;;;6185681;23;20384;-72
2021/07/31 11:39:29;;;;;;;5.40;4.90;;;32.80;94.90;;;;;;6184530;23;20755;-65
2021/07/31 11:41:57;;;;;;;4.87;4.47;;;32.80;94.30;;;;;;6185343;23;20380;-68
2021/07/31 11:44:33;;;;;;;4.67;4.27;;;32.80;95.00;;;;;;6184797;23;20178;-67
2021/07/31 11:46:59;;;;;;;5.00;4.60;;;32.80;95.10;;;;;;6184380;23;20361;-67
2021/07/31 11:49:32;;;;;;;5.60;4.80;;;32.80;94.40;;;;;;6159325;23;20498;-75
2021/07/31 11:52:00;;;;;;;5.10;4.70;;;32.80;94.70;;;;;;6185836;23;20473;-73
2021/07/31 11:54:27;;;;;;;6.07;5.57;;;32.90;94.90;;;;;;6185673;23;20407;-71
2021/07/31 11:56:53;;;;;;;5.73;4.50;;;32.90;95.70;;;;;;6159377;23;20869;-67
2021/07/31 11:59:28;;;;;;;4.67;4.27;;;32.90;95.60;;;;;;6185326;23;20463;-66
2021/07/31 12:01:57;;;;;;;4.60;4.20;;;32.80;95.00;;;;;;6185536;23;20410;-68
2021/07/31 12:04:42;;;;;;;4.80;4.40;;;32.80;94.90;;;;;;6157934;23;20416;-67
2021/07/31 12:07:17;;;;;;;3.80;3.50;;;32.70;94.70;;;;;;6183244;23;20372;-68
2021/07/31 12:09:56;;;;;;;3.40;3.10;;;32.70;94.90;;;;;;6183858;23;20904;-66
2021/07/31 12:12:29;;;;;;;4.07;3.77;;;32.60;94.60;;;;;;6183017;23;20384;-66
2021/07/31 12:15:19;;;;;;;4.80;3.77;;;32.60;94.50;;;;;;6184034;23;20404;-70
2021/07/31 12:17:54;;;;;;;4.40;4.00;;;32.60;94.30;;;;;;6183227;23;20384;-68
2021/07/31 12:20:30;;;;;;;3.90;3.60;;;32.70;93.80;;;;;;6157237;23;20419;-69
2021/07/31 12:22:56;;;;;;;3.97;3.67;;;32.80;93.80;;;;;;6156801;23;20445;-65
2021/07/31 12:25:22;;;;;;;3.67;3.13;;;32.80;94.10;;;;;;6180869;23;20822;-67
2021/07/31 12:27:55;;;;;;;3.33;3.03;;;32.80;92.70;;;;;;6183007;23;20395;-66
2021/07/31 12:30:37;;;;;;;3.77;3.47;;;32.80;93.00;;;;;;6155382;23;20462;-72
2021/07/31 12:33:06;;;;;;;3.80;3.50;;;32.90;93.10;;;;;;6152441;23;20396;-68
2021/07/31 12:35:38;;;;;;;3.77;3.37;;;32.90;92.60;;;;;;6180935;23;20754;-70
2021/07/31 12:38:08;;;;;;;3.43;3.13;;;33.00;92.50;;;;;;6181710;23;20373;-68
2021/07/31 12:40:35;;;;;;;3.93;3.53;;;33.00;92.60;;;;;;6184688;23;20902;-71